createdAt,value
2019-04-23T00:03:45.759Z,54.30
2019-04-23T00:06:21.778Z,54.30
2019-04-23T00:08:52.654Z,54.40
2019-04-23T00:11:19.397Z,55.00
2019-04-23T00:18:46.115Z,56.60
2019-04-23T00:21:28.366Z,57.00
2019-04-23T00:24:07.639Z,57.70
2019-04-23T00:29:00.438Z,58.50
2019-04-23T00:31:24.020Z,59.00
2019-04-23T00:33:51.112Z,59.50
2019-04-23T00:36:27.252Z,60.10
2019-04-23T00:41:15.926Z,61.00
2019-04-23T00:43:48.495Z,61.70
2019-04-23T00:46:15.594Z,62.20
2019-04-23T00:48:52.259Z,63.40
2019-04-23T00:51:11.296Z,63.90
2019-04-23T00:53:38.960Z,64.80
2019-04-23T00:58:43.271Z,65.80
2019-04-23T01:01:11.570Z,66.80
2019-04-23T01:03:47.283Z,67.60
2019-04-23T01:06:18.217Z,67.90
2019-04-23T01:08:40.445Z,68.40
2019-04-23T01:11:11.245Z,69.30
2019-04-23T01:13:45.692Z,70.10
2019-04-23T01:16:13.198Z,70.50
2019-04-23T01:18:55.509Z,71.60
2019-04-23T01:21:05.709Z,72.40
2019-04-23T01:23:52.611Z,72.90
2019-04-23T01:26:40.636Z,73.60
2019-04-23T01:29:06.768Z,73.70
2019-04-23T01:31:39.893Z,74.90
2019-04-23T01:34:10.119Z,75.60
2019-04-23T01:36:33.053Z,75.80
2019-04-23T01:39:06.498Z,76.50
2019-04-23T01:41:38.444Z,76.80
2019-04-23T01:43:55.909Z,77.30
2019-04-23T01:46:35.832Z,77.50
2019-04-23T01:49:20.714Z,78.40
2019-04-23T01:51:36.001Z,78.80
2019-04-23T01:53:57.429Z,79.00
2019-04-23T01:56:28.397Z,78.60
2019-04-23T01:59:01.930Z,78.30
2019-04-23T02:01:48.265Z,78.60
2019-04-23T02:06:25.123Z,79.30
2019-04-23T02:09:00.479Z,79.60
2019-04-23T02:11:16.444Z,80.30
2019-04-23T02:14:10.821Z,80.50
2019-04-23T02:16:24.684Z,81.30
2019-04-23T02:21:26.067Z,81.50
2019-04-23T02:23:53.701Z,81.80
2019-04-23T02:26:30.954Z,82.70
2019-04-23T02:31:44.518Z,83.90
2019-04-23T02:34:12.177Z,84.20
2019-04-23T02:36:32.500Z,84.80
2019-04-23T02:44:04.346Z,86.30
2019-04-23T02:49:00.092Z,87.90
2019-04-23T02:51:29.072Z,87.60
2019-04-23T02:56:34.625Z,89.10
2019-04-23T02:58:52.598Z,89.70
2019-04-23T03:01:19.341Z,90.50
2019-04-23T03:06:16.332Z,90.80
2019-04-23T03:08:46.690Z,90.80
2019-04-23T03:11:41.782Z,91.40
2019-04-23T03:16:53.990Z,91.90
2019-04-23T03:19:25.631Z,92.10
2019-04-23T03:25:12.913Z,92.30
2019-04-23T03:30:16.339Z,93.20
2019-04-23T03:37:42.363Z,92.90
2019-04-23T03:42:35.151Z,93.10
2019-04-23T03:45:07.526Z,93.60
2019-04-23T03:50:04.888Z,94.10
2019-04-23T03:54:48.991Z,93.90
2019-04-23T04:00:03.470Z,94.20
2019-04-23T04:04:49.513Z,94.60
2019-04-23T04:12:34.981Z,94.70
2019-04-23T04:14:54.596Z,95.00
2019-04-23T04:17:19.671Z,95.40
2019-04-23T04:20:05.295Z,95.50
2019-04-23T04:24:48.250Z,95.40
2019-04-23T04:27:12.419Z,95.60
2019-04-23T04:30:00.915Z,95.40
2019-04-23T04:32:03.527Z,95.90
2019-04-23T04:35:07.311Z,96.10
2019-04-23T04:39:53.163Z,96.10
2019-04-23T04:47:14.866Z,96.20
2019-04-23T04:52:21.929Z,96.30
2019-04-23T04:54:42.301Z,96.40
2019-04-23T04:57:12.929Z,96.70
2019-04-23T04:59:40.503Z,96.90
2019-04-23T05:04:37.378Z,96.70
2019-04-23T05:09:40.755Z,96.30
2019-04-23T05:12:18.352Z,96.00
2019-04-23T05:14:25.164Z,96.10
2019-04-23T05:16:56.763Z,96.00
2019-04-23T05:19:35.072Z,96.20
2019-04-23T05:24:31.795Z,96.20
2019-04-23T05:26:55.462Z,95.90
2019-04-23T05:29:30.337Z,95.70
2019-04-23T05:31:53.423Z,95.40
2019-04-23T05:34:23.453Z,95.40
2019-04-23T05:37:04.760Z,95.50
2019-04-23T05:41:49.953Z,94.90
2019-04-23T05:44:21.591Z,94.70
2019-04-23T05:46:45.374Z,94.60
2019-04-23T05:49:22.750Z,94.50
2019-04-23T05:51:50.892Z,94.20
2019-04-23T05:54:24.358Z,94.50
2019-04-23T05:56:55.179Z,94.20
2019-04-23T05:59:17.730Z,94.20
2019-04-23T06:07:04.719Z,93.00
2019-04-23T06:11:52.623Z,92.50
2019-04-23T06:14:17.364Z,92.70
2019-04-23T06:16:43.068Z,92.30
2019-04-23T06:21:46.067Z,92.20
2019-04-23T06:24:24.952Z,92.40
2019-04-23T06:29:20.611Z,91.90
2019-04-23T06:31:48.749Z,91.70
2019-04-23T06:34:20.316Z,91.60
2019-04-23T06:39:08.452Z,91.20
2019-04-23T06:41:44.024Z,91.10
2019-04-23T06:44:28.454Z,90.50
2019-04-23T06:46:54.940Z,90.40
2019-04-23T06:49:17.270Z,90.40
2019-04-23T06:51:52.198Z,90.00
2019-04-23T06:54:18.488Z,90.30
2019-04-23T06:57:14.612Z,90.60
2019-04-23T06:59:33.660Z,90.10
2019-04-23T07:02:06.355Z,89.60
2019-04-23T07:04:36.064Z,88.40
2019-04-23T07:07:25.561Z,89.20
2019-04-23T07:09:29.289Z,88.60
2019-04-23T07:12:02.043Z,87.60
2019-04-23T07:14:32.233Z,87.80
2019-04-23T07:16:52.872Z,86.60
2019-04-23T07:21:58.680Z,86.30
2019-04-23T07:24:24.597Z,86.00
2019-04-23T07:26:45.262Z,85.20
2019-04-23T07:29:25.430Z,85.30
2019-04-23T07:31:54.661Z,84.80
2019-04-23T07:34:20.375Z,84.40
2019-04-23T07:36:47.372Z,84.90
2019-04-23T07:42:20.601Z,83.50
2019-04-23T07:45:17.511Z,83.50
2019-04-23T07:53:07.134Z,81.50
2019-04-23T07:55:44.862Z,82.20
2019-04-23T07:58:06.431Z,81.70
2019-04-23T08:00:35.239Z,81.80
2019-04-23T08:03:07.005Z,80.10
2019-04-23T08:05:26.812Z,81.50
2019-04-23T08:07:55.517Z,81.40
2019-04-23T08:10:29.882Z,81.70
2019-04-23T08:12:55.543Z,78.60
2019-04-23T08:15:24.967Z,78.20
2019-04-23T08:17:50.510Z,77.80
2019-04-23T08:20:21.262Z,77.60
2019-04-23T08:22:57.315Z,78.30
2019-04-23T08:25:44.843Z,77.60
2019-04-23T08:28:13.448Z,78.70
2019-04-23T08:30:41.564Z,77.30
2019-04-23T08:33:24.459Z,76.50
2019-04-23T08:35:45.425Z,75.50
2019-04-23T08:38:21.190Z,75.60
2019-04-23T08:40:40.735Z,74.70
2019-04-23T08:43:36.065Z,74.60
2019-04-23T08:46:07.156Z,75.10
2019-04-23T08:48:34.615Z,74.90
2019-04-23T08:51:34.375Z,73.90
2019-04-23T08:53:37.632Z,73.20
2019-04-23T08:55:57.494Z,74.60
2019-04-23T09:01:07.757Z,73.60
2019-04-23T09:08:27.416Z,72.00
2019-04-23T09:10:56.738Z,72.30
2019-04-23T09:15:51.780Z,72.10
2019-04-23T09:18:21.225Z,71.70
2019-04-23T09:20:45.476Z,72.50
2019-04-23T09:23:21.077Z,72.30
2019-04-23T09:25:47.760Z,70.60
2019-04-23T09:30:49.348Z,70.30
2019-04-23T09:33:45.196Z,70.00
2019-04-23T09:36:27.906Z,72.30
2019-04-23T09:39:20.548Z,70.40
2019-04-23T09:41:53.342Z,70.10
2019-04-23T09:47:14.308Z,68.70
2019-04-23T09:49:39.475Z,68.50
2019-04-23T09:52:14.654Z,69.00
2019-04-23T09:57:07.237Z,67.40
2019-04-23T09:59:47.362Z,67.50
2019-04-23T10:01:54.338Z,66.40
2019-04-23T10:04:26.499Z,66.20
2019-04-23T10:06:40.822Z,66.60
2019-04-23T10:09:10.615Z,66.20
2019-04-23T10:11:37.858Z,65.80
2019-04-23T10:14:06.255Z,65.10
2019-04-23T10:16:34.347Z,64.40
2019-04-23T10:19:01.768Z,65.20
2019-04-23T10:21:29.262Z,65.40
2019-04-23T10:23:57.128Z,63.80
2019-04-23T10:26:25.924Z,62.20
2019-04-23T10:29:07.619Z,62.30
2019-04-23T10:31:35.643Z,61.20
2019-04-23T10:34:04.407Z,63.30
2019-04-23T10:36:32.526Z,61.60
2019-04-23T10:39:08.601Z,60.70
2019-04-23T10:41:32.747Z,60.90
2019-04-23T10:44:12.895Z,60.70
2019-04-23T10:47:17.757Z,59.20
2019-04-23T10:49:58.133Z,55.60
2019-04-23T10:52:33.703Z,57.20
2019-04-23T10:55:12.724Z,54.20
2019-04-23T10:57:22.837Z,54.30
2019-04-23T10:59:47.273Z,50.70
2019-04-23T11:05:00.424Z,47.60
2019-04-23T11:15:26.787Z,40.20
2019-04-23T11:22:45.227Z,37.40
2019-04-23T11:25:27.976Z,37.70
2019-04-23T11:27:44.018Z,38.40
2019-04-23T11:32:53.837Z,38.10
2019-04-23T11:35:40.115Z,39.20
2019-04-23T11:37:47.910Z,39.70
2019-04-23T11:42:44.334Z,41.00
2019-04-23T11:45:19.198Z,40.90
2019-04-23T11:52:42.778Z,40.10
2019-04-23T11:55:22.434Z,39.00
2019-04-23T12:00:05.961Z,38.10
2019-04-23T12:02:45.274Z,37.50
2019-04-23T12:05:41.003Z,36.50
2019-04-23T12:11:15.242Z,35.50
2019-04-23T12:13:38.135Z,35.30
2019-04-23T12:15:53.449Z,34.30
2019-04-23T12:18:43.642Z,33.20
2019-04-23T12:20:59.490Z,33.30
2019-04-23T12:23:40.903Z,32.50
2019-04-23T12:26:06.673Z,33.00
2019-04-23T12:28:30.563Z,33.20
2019-04-23T12:33:42.663Z,32.20
2019-04-23T12:36:10.148Z,32.20
2019-04-23T12:38:26.997Z,32.60
2019-04-23T12:40:57.845Z,32.60
2019-04-23T12:43:23.745Z,32.20
2019-04-23T12:45:52.067Z,32.40
2019-04-23T12:51:09.415Z,33.10
2019-04-23T12:55:51.264Z,33.10
2019-04-23T12:58:26.682Z,33.20
2019-04-23T13:00:48.106Z,33.90
2019-04-23T13:03:25.434Z,33.20
2019-04-23T13:05:36.016Z,34.10
2019-04-23T13:08:26.887Z,33.30
2019-04-23T13:10:48.239Z,34.10
2019-04-23T13:18:17.484Z,33.90
2019-04-23T13:20:38.438Z,33.50
2019-04-23T13:23:16.485Z,33.00
2019-04-23T13:25:59.667Z,33.40
2019-04-23T13:30:58.993Z,32.40
2019-04-23T13:33:37.991Z,32.80
2019-04-23T13:38:34.918Z,31.70
2019-04-23T13:41:01.449Z,31.40
2019-04-23T13:48:15.181Z,31.40
2019-04-23T13:51:02.929Z,30.70
2019-04-23T13:53:42.808Z,32.60
2019-04-23T13:55:45.558Z,32.50
2019-04-23T14:01:01.326Z,33.10
2019-04-23T14:03:30.469Z,32.60
2019-04-23T14:06:09.462Z,33.60
2019-04-23T14:11:02.262Z,32.40
2019-04-23T14:13:46.248Z,33.80
2019-04-23T14:20:59.015Z,35.00
2019-04-23T14:23:31.527Z,33.50
2019-04-23T14:26:10.821Z,32.90
2019-04-23T14:28:28.094Z,33.30
2019-04-23T14:31:00.631Z,32.90
2019-04-23T14:33:23.257Z,33.70
2019-04-23T14:35:54.485Z,33.10
2019-04-23T14:43:40.653Z,33.00
2019-04-23T14:51:11.715Z,32.30
2019-04-23T14:58:38.276Z,32.70
2019-04-23T15:01:15.982Z,34.10
2019-04-23T15:03:32.939Z,33.40
2019-04-23T15:06:06.774Z,33.10
2019-04-23T15:08:32.784Z,34.80
2019-04-23T15:11:06.151Z,33.20
2019-04-23T15:13:23.138Z,32.70
2019-04-23T15:15:54.089Z,33.40
2019-04-23T15:18:45.190Z,32.60
2019-04-23T15:27:06.952Z,32.00
2019-04-23T15:27:29.620Z,32.80
2019-04-23T15:28:11.097Z,31.40
2019-04-23T15:31:09.621Z,31.90
2019-04-23T15:36:23.899Z,32.90
2019-04-23T15:39:11.110Z,32.00
2019-04-23T15:41:07.149Z,32.50
2019-04-23T15:43:34.372Z,32.00
2019-04-23T15:46:02.912Z,32.30
2019-04-23T15:48:32.019Z,32.50
2019-04-23T15:51:04.145Z,32.50
2019-04-23T15:53:17.469Z,32.10
2019-04-23T15:56:04.467Z,32.70
2019-04-23T15:58:42.053Z,32.60
2019-04-23T16:01:17.884Z,32.80
2019-04-23T16:03:14.987Z,33.20
2019-04-23T16:05:42.653Z,33.00
2019-04-23T16:08:48.092Z,35.10
2019-04-23T16:11:17.157Z,35.30
2019-04-23T16:13:54.467Z,36.70
2019-04-23T16:16:10.509Z,37.70
2019-04-23T16:19:00.254Z,39.30
2019-04-23T16:21:32.326Z,38.80
2019-04-23T16:23:52.861Z,38.80
2019-04-23T16:26:27.280Z,39.40
2019-04-23T16:29:10.169Z,40.40
2019-04-23T16:31:34.926Z,41.50
2019-04-23T16:36:38.767Z,40.90
2019-04-23T16:41:43.160Z,42.40
2019-04-23T16:44:18.391Z,42.20
2019-04-23T16:46:33.820Z,42.90
2019-04-23T16:54:09.610Z,44.30
2019-04-23T16:56:42.804Z,44.60
2019-04-23T16:59:12.193Z,45.00
2019-04-23T17:01:28.392Z,45.90
2019-04-23T17:04:03.853Z,45.30
2019-04-23T17:06:29.350Z,46.00
2019-04-23T17:08:57.887Z,45.80
2019-04-23T17:11:27.555Z,46.60
2019-04-23T17:14:02.191Z,47.00
2019-04-23T17:16:34.043Z,47.30
2019-04-23T17:18:55.241Z,47.70
2019-04-23T17:21:32.412Z,48.30
2019-04-23T17:24:14.501Z,49.10
2019-04-23T17:26:25.502Z,49.30
2019-04-23T17:28:51.746Z,49.30
2019-04-23T17:33:48.160Z,50.20
2019-04-23T17:36:50.153Z,50.20
2019-04-23T17:39:31.099Z,50.70
2019-04-23T17:42:25.545Z,50.90
2019-04-23T17:45:16.909Z,51.70
2019-04-23T17:47:42.781Z,51.80
2019-04-23T17:50:17.318Z,52.10
2019-04-23T17:57:37.005Z,51.80
2019-04-23T18:00:23.135Z,51.70
2019-04-23T18:05:06.237Z,52.80
2019-04-23T18:15:00.362Z,53.30
2019-04-23T18:20:05.330Z,53.70
2019-04-23T18:22:41.935Z,54.00
2019-04-23T18:25:30.886Z,54.50
2019-04-23T18:27:56.710Z,54.60
2019-04-23T18:30:32.038Z,54.80
2019-04-23T18:33:54.360Z,55.50
2019-04-23T18:35:52.629Z,55.70
2019-04-23T18:38:25.066Z,56.30
2019-04-23T18:41:02.383Z,56.70
2019-04-23T18:43:26.886Z,56.70
2019-04-23T18:45:57.367Z,57.50
2019-04-23T18:48:39.304Z,59.50
2019-04-23T18:51:01.126Z,58.60
2019-04-23T18:53:38.053Z,59.30
2019-04-23T18:58:34.476Z,60.90
2019-04-23T19:01:05.131Z,60.60
2019-04-23T19:09:49.211Z,63.40
2019-04-23T19:12:32.274Z,66.80
2019-04-23T19:14:59.764Z,68.20
2019-04-23T19:17:43.688Z,69.40
2019-04-23T19:24:46.826Z,73.20
2019-04-23T19:29:49.804Z,75.80
2019-04-23T19:32:08.868Z,75.80
2019-04-23T19:37:11.106Z,75.50
2019-04-23T19:39:46.968Z,78.20
2019-04-23T19:42:28.510Z,78.50
2019-04-23T19:44:43.825Z,81.60
2019-04-23T19:47:19.376Z,81.20
2019-04-23T19:49:41.980Z,83.60
2019-04-23T19:52:04.920Z,83.10
2019-04-23T19:54:42.755Z,84.30
2019-04-23T19:57:12.638Z,87.80
2019-04-23T19:59:47.621Z,86.30
2019-04-23T20:02:08.036Z,86.20
2019-04-23T20:04:43.965Z,87.70
2019-04-23T20:12:03.216Z,90.40
2019-04-23T20:14:47.418Z,90.30
2019-04-23T20:19:37.658Z,91.30
2019-04-23T20:22:00.703Z,91.40
2019-04-23T20:27:09.247Z,93.00
2019-04-23T20:30:05.383Z,92.60
2019-04-23T20:32:52.653Z,92.90
2019-04-23T20:34:52.988Z,92.80
2019-04-23T20:37:27.669Z,93.00
2019-04-23T20:39:50.556Z,93.00
2019-04-23T20:47:15.285Z,93.90
2019-04-23T20:54:57.037Z,94.30
2019-04-23T20:57:44.053Z,94.50
2019-04-23T21:05:15.122Z,94.50
2019-04-23T21:07:54.362Z,94.70
2019-04-23T21:13:01.191Z,94.40
2019-04-23T21:17:56.192Z,94.70
2019-04-23T21:22:41.599Z,94.70
2019-04-23T21:25:14.862Z,95.00
2019-04-23T21:30:46.575Z,95.00
2019-04-23T21:33:07.384Z,94.70
2019-04-23T21:36:05.436Z,95.80
2019-04-23T21:38:33.302Z,95.80
2019-04-23T21:46:20.502Z,96.00
2019-04-23T21:49:02.127Z,96.40
2019-04-23T21:51:22.952Z,96.00
2019-04-23T21:53:42.767Z,96.10
2019-04-23T21:56:15.159Z,96.10
2019-04-23T21:59:44.647Z,96.30
2019-04-23T22:06:22.139Z,96.40
2019-04-23T22:08:52.869Z,96.60
2019-04-23T22:11:51.010Z,96.50
2019-04-23T22:13:57.829Z,96.70
2019-04-23T22:16:26.020Z,96.60
2019-04-23T22:19:00.394Z,96.50
2019-04-23T22:21:15.634Z,96.40
2019-04-23T22:23:58.162Z,96.40
2019-04-23T22:28:48.877Z,96.60
2019-04-23T22:31:18.657Z,96.10
2019-04-23T22:33:50.245Z,96.20
2019-04-23T22:36:21.507Z,96.10
2019-04-23T22:38:35.994Z,95.90
2019-04-23T22:41:10.061Z,95.50
2019-04-23T22:43:49.824Z,95.60
2019-04-23T22:46:12.192Z,95.30
2019-04-23T22:49:07.931Z,95.30
2019-04-23T22:51:30.974Z,95.10
2019-04-23T22:54:02.712Z,95.40
2019-04-23T22:56:27.622Z,94.80
2019-04-23T22:59:01.972Z,94.80
2019-04-23T23:01:26.025Z,95.00
2019-04-23T23:04:05.056Z,95.00
2019-04-23T23:06:43.500Z,95.10
2019-04-23T23:09:10.223Z,95.10
2019-04-23T23:11:22.808Z,95.30
2019-04-23T23:14:10.109Z,95.30
2019-04-23T23:16:28.305Z,94.80
2019-04-23T23:19:19.369Z,95.00
2019-04-23T23:23:52.948Z,95.20
2019-04-23T23:26:21.872Z,95.20
2019-04-23T23:28:55.846Z,95.20
2019-04-23T23:31:18.769Z,95.10
2019-04-23T23:33:54.235Z,95.10
2019-04-23T23:36:19.914Z,95.40
2019-04-23T23:41:35.612Z,95.40
2019-04-23T23:43:59.626Z,95.50
2019-04-23T23:48:48.226Z,95.70
2019-04-23T23:51:17.432Z,95.90
2019-04-23T23:54:04.546Z,95.80
2019-04-23T23:56:34.954Z,96.00
2019-04-23T23:58:53.996Z,95.70
